createdAt,value
2018-10-17T17:00:02.106Z,1013.31
2018-10-17T17:01:01.974Z,1013.34
2018-10-17T17:02:01.926Z,1013.33
2018-10-17T17:03:01.953Z,1013.33
2018-10-17T17:04:01.849Z,1013.38
2018-10-17T17:05:01.837Z,1013.38
2018-10-17T17:06:01.790Z,1013.39
2018-10-17T17:07:01.740Z,1013.39
2018-10-17T17:08:01.694Z,1013.39
2018-10-17T17:09:01.678Z,1013.42
2018-10-17T17:10:01.620Z,1013.42
2018-10-17T17:11:01.579Z,1013.43
2018-10-17T17:12:01.611Z,1013.43
2018-10-17T17:13:01.499Z,1013.45
2018-10-17T17:14:01.473Z,1013.47
2018-10-17T17:15:01.441Z,1013.48
2018-10-17T17:16:01.377Z,1013.45
2018-10-17T17:17:01.337Z,1013.52
2018-10-17T17:18:01.375Z,1013.52
2018-10-17T17:19:01.287Z,1013.53
2018-10-17T17:20:01.221Z,1013.52
2018-10-17T17:21:01.187Z,1013.53
2018-10-17T17:22:01.171Z,1013.55
2018-10-17T17:23:01.113Z,1013.55
2018-10-17T17:24:01.095Z,1013.52
2018-10-17T17:25:01.082Z,1013.55
2018-10-17T17:26:00.986Z,1013.59
2018-10-17T17:27:00.964Z,1013.55
2018-10-17T17:28:00.909Z,1013.60
2018-10-17T17:29:00.869Z,1013.59
2018-10-17T17:30:00.859Z,1013.59
2018-10-17T17:31:00.825Z,1013.58
2018-10-17T17:32:00.763Z,1013.60
2018-10-17T17:33:00.781Z,1013.60
2018-10-17T17:34:00.684Z,1013.58
2018-10-17T17:35:00.660Z,1013.60
2018-10-17T17:36:00.635Z,1013.58
2018-10-17T17:37:00.571Z,1013.62
2018-10-17T17:38:00.523Z,1013.60
2018-10-17T17:39:00.482Z,1013.64
2018-10-17T17:40:00.469Z,1013.66
2018-10-17T17:41:00.405Z,1013.68
2018-10-17T17:42:00.427Z,1013.68
2018-10-17T17:43:00.357Z,1013.67
2018-10-17T17:44:00.299Z,1013.70
2018-10-17T17:45:00.261Z,1013.68
2018-10-17T17:46:00.281Z,1013.70
2018-10-17T17:47:00.174Z,1013.72
2018-10-17T17:48:00.136Z,1013.74
2018-10-17T17:49:00.095Z,1013.74
2018-10-17T17:50:00.091Z,1013.76
2018-10-17T17:51:00.030Z,1013.78
2018-10-17T17:52:00.054Z,1013.78
2018-10-17T17:52:59.944Z,1013.79
2018-10-17T17:53:59.910Z,1013.85
2018-10-17T17:54:59.870Z,1013.87
2018-10-17T17:55:59.835Z,1013.87
2018-10-17T17:56:59.818Z,1013.88
2018-10-17T17:57:59.851Z,1013.86
2018-10-17T17:58:59.708Z,1013.88
2018-10-17T17:59:59.672Z,1013.89
2018-10-17T18:00:59.633Z,1013.89
2018-10-17T18:01:59.604Z,1013.88
2018-10-17T18:02:59.594Z,1013.89
2018-10-17T18:03:59.538Z,1013.94
2018-10-17T18:04:59.483Z,1013.91
2018-10-17T18:05:59.441Z,1013.92
2018-10-17T18:06:59.404Z,1013.98
2018-10-17T18:07:59.366Z,1013.95
2018-10-17T18:08:59.347Z,1013.97
2018-10-17T18:09:59.290Z,1013.96
2018-10-17T18:10:59.270Z,1013.99
2018-10-17T18:11:59.210Z,1013.99
2018-10-17T18:12:59.164Z,1013.97
2018-10-17T18:13:59.134Z,1013.98
2018-10-17T18:14:59.098Z,1013.98
2018-10-17T18:15:59.084Z,1013.98
2018-10-17T18:16:59.041Z,1013.98
2018-10-17T18:17:58.969Z,1013.96
2018-10-17T18:18:58.931Z,1013.97
2018-10-17T18:19:58.911Z,1014.00
2018-10-17T18:20:58.879Z,1013.99
2018-10-17T18:21:58.940Z,1014.00
2018-10-17T18:22:58.784Z,1014.02
2018-10-17T18:23:58.760Z,1014.01
2018-10-17T18:24:58.701Z,1014.02
2018-10-17T18:25:58.669Z,1014.03
2018-10-17T18:26:58.651Z,1014.05
2018-10-17T18:27:58.647Z,1014.06
2018-10-17T18:28:58.551Z,1014.09
2018-10-17T18:29:58.504Z,1014.10
2018-10-17T18:30:58.469Z,1014.11
2018-10-17T18:31:58.449Z,1014.13
2018-10-17T18:32:58.389Z,1014.11
2018-10-17T18:33:58.366Z,1014.17
2018-10-17T18:34:58.318Z,1014.17
2018-10-17T18:35:58.277Z,1014.19
2018-10-17T18:36:58.260Z,1014.23
2018-10-17T18:37:58.195Z,1014.22
2018-10-17T18:38:58.157Z,1014.22
2018-10-17T18:39:58.155Z,1014.23
2018-10-17T18:40:58.104Z,1014.24
2018-10-17T18:41:58.064Z,1014.24
2018-10-17T18:42:58.003Z,1014.22
2018-10-17T18:43:57.959Z,1014.25
2018-10-17T18:45:00.727Z,1014.24
2018-10-17T18:45:57.891Z,1014.23
2018-10-17T18:46:57.874Z,1014.27
2018-10-17T18:47:58.000Z,1014.24
2018-10-17T18:48:57.775Z,1014.28
2018-10-17T18:49:57.728Z,1014.28
2018-10-17T18:50:57.719Z,1014.27
2018-10-17T18:51:57.674Z,1014.27
2018-10-17T18:52:57.613Z,1014.25
2018-10-17T18:53:57.604Z,1014.26
2018-10-17T18:54:57.542Z,1014.24
2018-10-17T18:55:57.504Z,1014.27
2018-10-17T18:56:57.486Z,1014.27
2018-10-17T18:57:57.435Z,1014.26
2018-10-17T18:58:57.411Z,1014.28
2018-10-17T18:59:57.348Z,1014.29
2018-10-17T19:00:57.312Z,1014.29
2018-10-17T19:01:57.286Z,1014.29
2018-10-17T19:02:57.246Z,1014.29
2018-10-17T19:03:57.187Z,1014.28
2018-10-17T19:04:57.149Z,1014.28
2018-10-17T19:05:57.116Z,1014.34
2018-10-17T19:06:57.104Z,1014.30
2018-10-17T19:07:57.115Z,1014.34
2018-10-17T19:08:57.057Z,1014.34
2018-10-17T19:09:56.957Z,1014.36
2018-10-17T19:10:56.920Z,1014.37
2018-10-17T19:11:56.889Z,1014.36
2018-10-17T19:12:56.844Z,1014.35
2018-10-17T19:13:56.822Z,1014.39
2018-10-17T19:14:56.801Z,1014.39
2018-10-17T19:15:56.733Z,1014.35
2018-10-17T19:16:56.680Z,1014.39
2018-10-17T19:17:56.680Z,1014.44
2018-10-17T19:18:56.611Z,1014.43
2018-10-17T19:19:56.575Z,1014.44
2018-10-17T19:20:56.537Z,1014.44
2018-10-17T19:21:56.490Z,1014.40
2018-10-17T19:22:56.472Z,1014.41
2018-10-17T19:23:56.445Z,1014.43
2018-10-17T19:24:56.374Z,1014.45
2018-10-17T19:25:56.340Z,1014.48
2018-10-17T19:26:56.370Z,1014.48
2018-10-17T19:27:56.279Z,1014.50
2018-10-17T19:28:56.217Z,1014.49
2018-10-17T19:29:56.190Z,1014.48
2018-10-17T19:30:56.147Z,1014.49
2018-10-17T19:31:56.110Z,1014.49
2018-10-17T19:32:56.125Z,1014.50
2018-10-17T19:33:56.024Z,1014.50
2018-10-17T19:34:55.988Z,1014.53
2018-10-17T19:35:55.997Z,1014.52
2018-10-17T19:36:55.906Z,1014.53
2018-10-17T19:37:55.880Z,1014.55
2018-10-17T19:38:55.885Z,1014.54
2018-10-17T19:39:55.799Z,1014.56
2018-10-17T19:40:55.763Z,1014.58
2018-10-17T19:41:55.765Z,1014.56
2018-10-17T19:42:55.680Z,1014.55
2018-10-17T19:43:55.673Z,1014.58
2018-10-17T19:44:55.643Z,1014.60
2018-10-17T19:45:55.584Z,1014.57
2018-10-17T19:46:55.523Z,1014.56
2018-10-17T19:47:55.545Z,1014.58
2018-10-17T19:48:55.470Z,1014.60
2018-10-17T19:49:55.413Z,1014.62
2018-10-17T19:50:55.431Z,1014.61
2018-10-17T19:51:55.338Z,1014.64
2018-10-17T19:52:55.305Z,1014.65
2018-10-17T19:53:55.253Z,1014.65
2018-10-17T19:54:55.239Z,1014.65
2018-10-17T19:55:55.268Z,1014.64
2018-10-17T19:56:55.192Z,1014.65
2018-10-17T19:57:55.107Z,1014.67
2018-10-17T19:58:55.068Z,1014.69
2018-10-17T19:59:55.051Z,1014.69
2018-10-17T20:00:54.981Z,1014.68
2018-10-17T20:01:54.957Z,1014.68
2018-10-17T20:02:54.918Z,1014.66
2018-10-17T20:03:54.877Z,1014.60
2018-10-17T20:04:54.867Z,1014.65
2018-10-17T20:05:54.791Z,1014.67
2018-10-17T20:06:54.795Z,1014.64
2018-10-17T20:07:54.714Z,1014.66
2018-10-17T20:08:54.723Z,1014.67
2018-10-17T20:09:54.641Z,1014.64
2018-10-17T20:10:54.626Z,1014.65
2018-10-17T20:11:54.580Z,1014.65
2018-10-17T20:12:54.532Z,1014.65
2018-10-17T20:13:54.482Z,1014.66
2018-10-17T20:14:54.455Z,1014.68
2018-10-17T20:15:54.433Z,1014.68
2018-10-17T20:16:54.369Z,1014.68
2018-10-17T20:17:54.324Z,1014.68
2018-10-17T20:18:54.285Z,1014.67
2018-10-17T20:19:54.243Z,1014.69
2018-10-17T20:20:54.244Z,1014.65
2018-10-17T20:21:54.172Z,1014.71
2018-10-17T20:22:54.157Z,1014.71
2018-10-17T20:23:54.108Z,1014.75
2018-10-17T20:24:54.141Z,1014.77
2018-10-17T20:25:54.013Z,1014.76
2018-10-17T20:26:54.003Z,1014.74
2018-10-17T20:27:53.958Z,1014.75
2018-10-17T20:28:53.895Z,1014.78
2018-10-17T20:29:53.887Z,1014.76
2018-10-17T20:30:53.825Z,1014.74
2018-10-17T20:31:53.780Z,1014.78
2018-10-17T20:32:53.741Z,1014.79
2018-10-17T20:33:53.707Z,1014.78
2018-10-17T20:34:53.734Z,1014.79
2018-10-17T20:35:53.628Z,1014.79
2018-10-17T20:36:53.592Z,1014.81
2018-10-17T20:37:53.551Z,1014.80
2018-10-17T20:38:53.502Z,1014.77
2018-10-17T20:39:53.489Z,1014.84
2018-10-17T20:40:53.430Z,1014.84
2018-10-17T20:41:53.405Z,1014.85
2018-10-17T20:42:53.359Z,1014.84
2018-10-17T20:43:53.341Z,1014.82
2018-10-17T20:44:53.304Z,1014.84
2018-10-17T20:45:53.233Z,1014.85
2018-10-17T20:46:53.195Z,1014.82
2018-10-17T20:47:53.160Z,1014.84
2018-10-17T20:48:53.125Z,1014.84
2018-10-17T20:49:53.133Z,1014.88
2018-10-17T20:50:53.039Z,1014.83
2018-10-17T20:51:52.997Z,1014.90
2018-10-17T20:52:52.959Z,1014.83
2018-10-17T20:53:52.928Z,1014.89
2018-10-17T20:54:52.909Z,1014.89
2018-10-17T20:55:52.847Z,1014.86
2018-10-17T20:56:52.809Z,1014.89
2018-10-17T20:57:52.816Z,1014.86
2018-10-17T20:58:52.738Z,1014.87
2018-10-17T20:59:52.711Z,1014.86
2018-10-17T21:00:52.647Z,1014.90
2018-10-17T21:01:52.675Z,1014.89
2018-10-17T21:02:52.577Z,1014.88
2018-10-17T21:03:52.529Z,1014.92
2018-10-17T21:04:52.510Z,1014.90
2018-10-17T21:05:52.460Z,1014.90
2018-10-17T21:06:52.417Z,1014.88
2018-10-17T21:07:52.377Z,1014.90
2018-10-17T21:08:52.366Z,1014.93
2018-10-17T21:09:52.297Z,1014.92
2018-10-17T21:10:52.254Z,1014.91
2018-10-17T21:11:52.213Z,1014.93
2018-10-17T21:12:52.190Z,1014.95
2018-10-17T21:13:52.175Z,1014.95
2018-10-17T21:14:52.105Z,1014.95
2018-10-17T21:15:52.063Z,1014.97
2018-10-17T21:16:52.039Z,1014.96
2018-10-17T21:17:51.980Z,1014.92
2018-10-17T21:18:52.017Z,1014.92
2018-10-17T21:19:51.911Z,1014.95
2018-10-17T21:20:51.865Z,1014.95
2018-10-17T21:21:51.823Z,1014.92
2018-10-17T21:22:51.784Z,1014.93
2018-10-17T21:23:51.767Z,1014.95
2018-10-17T21:24:51.700Z,1014.96
2018-10-17T21:25:51.686Z,1014.99
2018-10-17T21:26:51.729Z,1014.99
2018-10-17T21:27:51.595Z,1014.96
2018-10-17T21:28:51.615Z,1014.98
2018-10-17T21:29:51.522Z,1014.99
2018-10-17T21:30:51.471Z,1014.96
2018-10-17T21:31:51.428Z,1014.98
2018-10-17T21:32:51.389Z,1014.95
2018-10-17T21:33:51.380Z,1014.98
2018-10-17T21:34:51.319Z,1014.94
2018-10-17T21:35:51.270Z,1014.98
2018-10-17T21:36:51.233Z,1014.97
2018-10-17T21:37:51.304Z,1014.99
2018-10-17T21:38:51.184Z,1014.99
2018-10-17T21:39:51.122Z,1014.99
2018-10-17T21:40:51.083Z,1014.97
2018-10-17T21:41:51.033Z,1014.99
2018-10-17T21:42:50.997Z,1015.00
2018-10-17T21:43:50.977Z,1014.99
2018-10-17T21:44:50.918Z,1015.01
2018-10-17T21:45:50.883Z,1015.01
2018-10-17T21:46:50.853Z,1015.03
2018-10-17T21:47:50.803Z,1015.04
2018-10-17T21:48:50.787Z,1015.05
2018-10-17T21:49:50.717Z,1015.04
2018-10-17T21:50:50.680Z,1015.03
2018-10-17T21:51:50.645Z,1015.06
2018-10-17T21:52:50.610Z,1015.05
2018-10-17T21:53:50.592Z,1015.05
2018-10-17T21:54:50.521Z,1015.06
2018-10-17T21:55:50.481Z,1015.05
2018-10-17T21:56:50.441Z,1015.04
2018-10-17T21:57:50.433Z,1015.02
2018-10-17T21:58:50.370Z,1015.08
2018-10-17T21:59:50.327Z,1015.07
